Time;durP1;ratioP1;P1;durP2;ratioP2;P2;SDS_P1;SDS_P2;PMS_P1;PMS_P2;Temp;Humidity;BMP_temperature;BMP_pressure;BME280_temperature;BME280_humidity;BME280_pressure;Samples;Min_cycle;Max_cycle;Signal;HPM_P1;HPM_P2
2022/12/01 00:01:20;;;;;;;88.50;47.00;;;5.40;99.90;;;;;;4841513;29;20480;-60
2022/12/01 00:03:49;;;;;;;84.10;45.37;;;5.40;99.90;;;;;;4842029;29;20476;-62
2022/12/01 00:06:18;;;;;;;89.30;48.83;;;5.40;99.90;;;;;;4841822;29;20478;-61
2022/12/01 00:11:32;;;;;;;87.70;47.40;;;5.40;99.90;;;;;;4841681;29;21037;-61
2022/12/01 00:14:01;;;;;;;90.27;49.03;;;5.40;99.90;;;;;;4842208;29;20487;-62
2022/12/01 00:16:30;;;;;;;87.50;49.00;;;5.40;99.90;;;;;;4841935;29;20480;-62
2022/12/01 00:18:58;;;;;;;86.13;46.90;;;5.40;99.90;;;;;;4842365;29;20317;-62
2022/12/01 00:21:27;;;;;;;91.17;48.37;;;5.30;99.90;;;;;;4841905;29;20511;-62
2022/12/01 00:23:56;;;;;;;87.30;47.80;;;5.30;99.90;;;;;;4842030;29;20490;-62
2022/12/01 00:26:26;;;;;;;83.13;45.10;;;5.30;99.90;;;;;;4841706;29;21006;-62
2022/12/01 00:28:58;;;;;;;94.17;50.27;;;5.30;99.90;;;;;;4841000;29;20472;-62
2022/12/01 00:31:27;;;;;;;87.60;48.90;;;5.30;99.90;;;;;;4842398;29;20251;-62
2022/12/01 00:33:55;;;;;;;84.43;43.47;;;5.40;99.90;;;;;;4845575;29;20534;-62
2022/12/01 00:36:23;;;;;;;90.10;47.87;;;5.40;99.90;;;;;;4845406;29;20833;-63
2022/12/01 00:38:52;;;;;;;82.83;43.83;;;5.50;99.90;;;;;;4845296;29;20488;-62
2022/12/01 00:41:21;;;;;;;92.97;48.00;;;5.50;99.90;;;;;;4843873;29;20598;-62
2022/12/01 00:43:50;;;;;;;80.53;44.10;;;5.40;99.90;;;;;;4845182;29;20265;-62
2022/12/01 00:46:19;;;;;;;87.43;46.13;;;5.40;99.90;;;;;;4845490;29;20486;-62
2022/12/01 00:48:49;;;;;;;93.33;50.33;;;5.50;99.90;;;;;;4845010;29;20555;-62
2022/12/01 00:51:17;;;;;;;96.27;50.87;;;5.30;99.90;;;;;;4844988;29;20471;-61
2022/12/01 00:53:45;;;;;;;92.10;49.30;;;5.30;99.90;;;;;;4845158;29;20498;-62
2022/12/01 00:56:13;;;;;;;99.10;51.97;;;5.30;99.90;;;;;;4844821;29;20495;-62
2022/12/01 00:58:42;;;;;;;86.53;46.07;;;5.30;99.90;;;;;;4844717;29;20483;-63
2022/12/01 01:01:10;;;;;;;91.40;49.77;;;5.30;99.90;;;;;;4837082;29;20487;-63
2022/12/01 01:03:39;;;;;;;95.63;51.30;;;5.30;99.90;;;;;;4844890;29;21052;-62
2022/12/01 01:06:11;;;;;;;90.00;49.70;;;5.40;99.90;;;;;;4844988;29;20487;-62
2022/12/01 01:08:39;;;;;;;100.40;51.97;;;5.40;99.90;;;;;;4844953;29;20687;-63
2022/12/01 01:11:08;;;;;;;82.30;41.87;;;5.30;99.90;;;;;;4844725;29;20480;-62
2022/12/01 01:13:38;;;;;;;83.90;45.47;;;5.60;99.90;;;;;;4844671;29;20460;-62
2022/12/01 01:16:09;;;;;;;88.70;49.77;;;5.40;99.90;;;;;;4844680;29;20235;-61
2022/12/01 01:18:38;;;;;;;82.30;43.97;;;5.30;99.90;;;;;;4844844;29;20588;-62
2022/12/01 01:21:10;;;;;;;86.10;45.63;;;5.50;99.90;;;;;;4844674;29;20533;-62
2022/12/01 01:23:38;;;;;;;91.03;47.40;;;5.60;99.90;;;;;;4844380;29;20484;-62
2022/12/01 01:26:09;;;;;;;83.97;46.23;;;5.50;99.90;;;;;;4844520;29;20494;-62
2022/12/01 01:28:37;;;;;;;90.60;49.27;;;5.50;99.90;;;;;;4844446;29;20486;-62
2022/12/01 01:31:06;;;;;;;91.10;47.87;;;5.40;99.90;;;;;;4844053;29;20503;-63
2022/12/01 01:33:34;;;;;;;80.73;44.73;;;5.30;99.90;;;;;;4844257;29;20494;-63
2022/12/01 01:36:05;;;;;;;94.23;51.20;;;5.40;99.90;;;;;;4844300;29;20979;-62
2022/12/01 01:38:33;;;;;;;83.63;46.53;;;5.30;99.90;;;;;;4844363;29;20536;-62
2022/12/01 01:41:02;;;;;;;85.67;48.97;;;5.40;99.90;;;;;;4844457;29;20864;-62
2022/12/01 01:43:41;;;;;;;85.77;47.10;;;5.30;99.90;;;;;;4843353;29;20499;-62
2022/12/01 01:46:11;;;;;;;92.43;49.97;;;5.30;99.90;;;;;;4844517;29;20479;-62
2022/12/01 01:48:42;;;;;;;91.30;47.53;;;5.30;99.90;;;;;;4844278;29;20980;-62
2022/12/01 01:51:13;;;;;;;88.33;49.73;;;5.30;99.90;;;;;;4844276;29;21040;-62
2022/12/01 01:53:42;;;;;;;77.17;44.40;;;5.30;99.90;;;;;;4844149;29;20473;-62
2022/12/01 01:56:10;;;;;;;73.93;40.93;;;5.20;99.90;;;;;;4843907;29;20468;-62
2022/12/01 01:58:40;;;;;;;82.30;46.33;;;5.40;99.90;;;;;;4843678;29;20871;-62
2022/12/01 02:01:08;;;;;;;83.30;47.50;;;5.40;99.90;;;;;;4843501;29;20533;-62
2022/12/01 02:03:38;;;;;;;83.23;46.67;;;5.50;99.90;;;;;;4843685;29;20570;-63
2022/12/01 02:06:08;;;;;;;81.43;44.67;;;5.40;99.90;;;;;;4844104;29;20483;-63
2022/12/01 02:08:38;;;;;;;75.57;42.87;;;5.30;99.90;;;;;;4843924;29;20480;-62
2022/12/01 02:11:28;;;;;;;84.17;46.77;;;5.50;99.90;;;;;;4844048;29;20969;-62
2022/12/01 02:14:07;;;;;;;78.83;45.87;;;5.50;99.90;;;;;;4843958;29;20479;-62
2022/12/01 02:16:42;;;;;;;83.43;46.70;;;5.50;99.90;;;;;;4843472;29;20472;-62
2022/12/01 02:19:42;;;;;;;83.47;48.00;;;5.60;99.90;;;;;;4843900;29;20566;-62
2022/12/01 02:22:22;;;;;;;79.90;44.10;;;5.40;99.90;;;;;;4836265;29;20496;-63
2022/12/01 02:25:18;;;;;;;80.50;46.43;;;5.40;99.90;;;;;;4844354;29;20491;-62
2022/12/01 02:28:07;;;;;;;79.83;46.03;;;5.40;99.90;;;;;;4846354;29;20476;-62
2022/12/01 02:30:40;;;;;;;86.27;47.90;;;5.30;99.90;;;;;;4842662;29;20468;-63
2022/12/01 02:33:16;;;;;;;74.23;41.80;;;5.30;99.90;;;;;;4843310;29;20511;-62
2022/12/01 02:35:55;;;;;;;80.27;44.50;;;5.40;99.90;;;;;;4843115;29;20881;-62
2022/12/01 02:38:29;;;;;;;84.47;47.53;;;5.40;99.90;;;;;;4843513;29;20962;-62
2022/12/01 02:41:03;;;;;;;88.53;47.83;;;5.40;99.90;;;;;;4843404;29;20506;-62
2022/12/01 02:43:38;;;;;;;86.57;48.23;;;5.40;99.90;;;;;;4843109;29;20832;-62
2022/12/01 02:46:12;;;;;;;82.33;47.40;;;5.30;99.90;;;;;;4843023;29;20490;-63
2022/12/01 02:48:43;;;;;;;83.53;47.07;;;5.30;99.90;;;;;;4842884;29;20848;-62
2022/12/01 02:51:16;;;;;;;71.13;43.03;;;5.40;99.90;;;;;;4843127;29;20482;-62
2022/12/01 02:53:44;;;;;;;78.10;46.47;;;5.40;99.90;;;;;;4851287;29;21051;-62
2022/12/01 02:56:15;;;;;;;83.47;47.30;;;5.50;99.90;;;;;;4850721;29;20483;-62
2022/12/01 02:58:43;;;;;;;84.83;46.87;;;5.30;99.90;;;;;;4842566;29;20474;-62
2022/12/01 03:01:25;;;;;;;81.27;46.13;;;5.30;99.90;;;;;;4835287;29;20502;-63
2022/12/01 03:04:07;;;;;;;88.60;48.80;;;5.30;99.90;;;;;;4843140;29;20479;-62
2022/12/01 03:06:50;;;;;;;82.93;45.77;;;5.20;99.90;;;;;;4842731;29;20504;-62
2022/12/01 03:09:29;;;;;;;82.80;46.17;;;5.20;99.90;;;;;;4842675;29;20482;-62
2022/12/01 03:12:05;;;;;;;82.43;45.63;;;5.20;99.90;;;;;;4842931;29;20832;-62
2022/12/01 03:14:39;;;;;;;90.70;47.67;;;5.30;99.90;;;;;;4842921;29;20471;-63
2022/12/01 03:17:15;;;;;;;82.37;46.53;;;5.20;99.90;;;;;;4842632;29;20543;-62
2022/12/01 03:19:48;;;;;;;82.67;45.87;;;5.40;99.90;;;;;;4842590;29;20489;-62
2022/12/01 03:22:24;;;;;;;82.97;47.33;;;5.30;99.90;;;;;;4835853;29;20488;-62
2022/12/01 03:24:54;;;;;;;77.23;46.03;;;5.20;99.90;;;;;;4843573;29;20472;-63
2022/12/01 03:27:27;;;;;;;78.03;43.57;;;5.10;99.90;;;;;;4848213;29;20475;-62
2022/12/01 03:29:57;;;;;;;85.83;47.77;;;5.10;99.90;;;;;;4842500;29;20495;-62
2022/12/01 03:32:31;;;;;;;75.80;45.97;;;5.20;99.90;;;;;;4842112;29;20544;-61
2022/12/01 03:35:04;;;;;;;82.07;47.73;;;5.20;99.90;;;;;;4842532;29;20525;-62
2022/12/01 03:37:36;;;;;;;83.13;47.47;;;5.20;99.90;;;;;;4842120;29;20472;-62
2022/12/01 03:40:07;;;;;;;79.57;44.80;;;5.20;99.90;;;;;;4842595;29;20539;-62
2022/12/01 03:42:40;;;;;;;81.23;46.80;;;5.20;99.90;;;;;;4842242;29;21002;-62
2022/12/01 03:45:17;;;;;;;84.33;48.20;;;5.20;99.90;;;;;;4842222;29;20496;-62
2022/12/01 03:47:47;;;;;;;84.80;46.83;;;5.20;99.90;;;;;;4842114;29;20536;-63
2022/12/01 03:50:17;;;;;;;81.90;46.37;;;5.10;99.90;;;;;;4842308;29;20471;-63
2022/12/01 03:52:51;;;;;;;77.83;43.23;;;5.10;99.90;;;;;;4841852;29;20472;-62
2022/12/01 03:55:23;;;;;;;77.77;43.50;;;5.10;99.90;;;;;;4842216;29;20487;-62
2022/12/01 03:57:56;;;;;;;86.30;46.50;;;5.20;99.90;;;;;;4842124;29;20492;-62
2022/12/01 04:00:25;;;;;;;80.63;47.10;;;5.20;99.90;;;;;;4841542;29;21108;-63
2022/12/01 04:02:57;;;;;;;85.60;47.90;;;5.20;99.90;;;;;;4841896;29;20588;-62
2022/12/01 04:05:26;;;;;;;86.93;48.83;;;5.30;99.90;;;;;;4842144;29;20472;-62
2022/12/01 04:07:54;;;;;;;74.03;42.60;;;5.20;99.90;;;;;;4841844;29;20538;-63
2022/12/01 04:10:22;;;;;;;87.87;49.13;;;5.20;99.90;;;;;;4842116;29;20983;-62
2022/12/01 04:12:49;;;;;;;75.67;43.17;;;5.10;99.90;;;;;;4842024;29;20539;-62
2022/12/01 04:15:17;;;;;;;72.47;40.97;;;5.10;99.90;;;;;;4841973;29;20981;-61
2022/12/01 04:17:45;;;;;;;80.10;45.80;;;5.20;99.90;;;;;;4841733;29;20538;-62
2022/12/01 04:20:16;;;;;;;86.07;49.40;;;5.20;99.90;;;;;;4842240;29;20479;-62
2022/12/01 04:22:44;;;;;;;91.20;48.80;;;5.10;99.90;;;;;;4841748;29;20504;-62
2022/12/01 04:25:12;;;;;;;82.70;46.73;;;5.10;99.90;;;;;;4845618;29;20535;-62
2022/12/01 04:27:40;;;;;;;86.03;46.97;;;5.10;99.90;;;;;;4845037;29;20480;-62
2022/12/01 04:30:09;;;;;;;80.83;46.87;;;5.10;99.90;;;;;;4841951;29;20499;-63
2022/12/01 04:32:38;;;;;;;85.73;47.00;;;5.10;99.90;;;;;;4841565;29;20480;-62
2022/12/01 04:35:07;;;;;;;80.93;47.07;;;5.10;99.90;;;;;;4841913;29;20471;-62
2022/12/01 04:37:37;;;;;;;73.80;42.77;;;5.10;99.90;;;;;;4841629;29;20836;-63
2022/12/01 04:40:06;;;;;;;80.20;46.03;;;5.10;99.90;;;;;;4841948;29;20555;-63
2022/12/01 04:42:34;;;;;;;83.93;45.43;;;5.10;99.90;;;;;;4841670;29;20906;-62
2022/12/01 04:45:03;;;;;;;87.13;47.77;;;5.20;99.90;;;;;;4840475;29;20956;-62
2022/12/01 04:47:31;;;;;;;76.17;42.07;;;5.20;99.90;;;;;;4833573;29;20475;-63
2022/12/01 04:49:59;;;;;;;83.50;47.40;;;5.20;99.90;;;;;;4839539;29;20481;-62
2022/12/01 04:52:27;;;;;;;79.80;46.67;;;5.10;99.90;;;;;;4841572;29;20468;-63
2022/12/01 04:55:03;;;;;;;76.90;43.50;;;5.00;99.90;;;;;;4841746;29;20501;-59
2022/12/01 04:57:31;;;;;;;82.17;45.77;;;5.10;99.90;;;;;;4836750;29;20479;-62
2022/12/01 04:59:59;;;;;;;83.20;45.40;;;5.20;99.90;;;;;;4841178;29;20495;-62
2022/12/01 05:02:27;;;;;;;77.23;44.37;;;5.20;99.90;;;;;;4840643;29;20580;-62
2022/12/01 05:04:56;;;;;;;81.50;46.07;;;5.10;99.90;;;;;;4841511;29;20456;-63
2022/12/01 05:07:24;;;;;;;81.40;45.50;;;5.10;99.90;;;;;;4841868;29;20493;-63
2022/12/01 05:09:53;;;;;;;82.53;47.30;;;5.20;99.90;;;;;;4841745;29;20736;-62
2022/12/01 05:12:23;;;;;;;75.50;42.53;;;5.10;99.90;;;;;;4841618;29;20479;-63
2022/12/01 05:14:51;;;;;;;84.33;46.17;;;5.10;99.90;;;;;;4841679;29;20482;-62
2022/12/01 05:17:19;;;;;;;79.83;42.23;;;5.10;99.90;;;;;;4842240;29;20975;-62
2022/12/01 05:22:32;;;;;;;76.37;44.57;;;5.20;99.90;;;;;;4844496;29;21019;-62
2022/12/01 05:25:20;;;;;;;78.07;44.57;;;5.10;99.90;;;;;;4847440;29;20513;-62
2022/12/01 05:27:50;;;;;;;77.07;45.67;;;5.10;99.90;;;;;;4844268;29;20483;-62
2022/12/01 05:30:18;;;;;;;77.40;44.73;;;5.10;99.90;;;;;;4844141;29;20718;-63
2022/12/01 05:32:52;;;;;;;76.67;44.40;;;5.20;99.90;;;;;;4844444;29;20487;-62
2022/12/01 05:35:20;;;;;;;83.80;46.47;;;5.10;99.90;;;;;;4844331;29;20475;-63
2022/12/01 05:37:48;;;;;;;79.70;45.33;;;5.10;99.90;;;;;;4844395;29;20486;-63
2022/12/01 05:40:16;;;;;;;78.23;45.60;;;5.20;99.90;;;;;;4844479;29;20989;-63
2022/12/01 05:42:44;;;;;;;74.73;41.63;;;5.10;99.90;;;;;;4844128;29;20254;-63
2022/12/01 05:45:14;;;;;;;83.50;46.37;;;5.20;99.90;;;;;;4844184;29;20250;-62
2022/12/01 05:47:42;;;;;;;76.30;43.43;;;5.30;99.90;;;;;;4843541;29;20551;-63
2022/12/01 05:50:10;;;;;;;72.23;40.13;;;5.20;99.90;;;;;;4844082;29;20467;-62
2022/12/01 05:52:38;;;;;;;73.43;43.27;;;5.40;99.90;;;;;;4843817;29;20487;-63
2022/12/01 05:55:07;;;;;;;71.20;41.77;;;5.30;99.90;;;;;;4844259;29;20471;-62
2022/12/01 05:57:35;;;;;;;75.60;43.13;;;5.20;99.90;;;;;;4843979;29;20977;-63
2022/12/01 06:00:05;;;;;;;84.27;45.87;;;5.20;99.90;;;;;;4844103;29;20550;-63
2022/12/01 06:02:39;;;;;;;71.20;40.53;;;5.20;99.90;;;;;;4843365;29;20253;-62
2022/12/01 06:05:08;;;;;;;76.53;41.93;;;5.30;99.90;;;;;;4843759;29;20235;-63
2022/12/01 06:07:38;;;;;;;87.07;47.20;;;5.30;99.90;;;;;;4840685;29;20517;-63
2022/12/01 06:10:09;;;;;;;83.97;47.20;;;5.20;99.90;;;;;;4825821;29;20879;-62
2022/12/01 06:12:37;;;;;;;73.80;44.13;;;5.30;99.90;;;;;;4825499;29;20486;-63
2022/12/01 06:15:07;;;;;;;82.00;47.47;;;5.20;99.90;;;;;;4827524;29;20481;-62
2022/12/01 06:17:35;;;;;;;79.77;46.70;;;5.20;99.90;;;;;;4825240;29;20476;-62
2022/12/01 06:20:10;;;;;;;83.67;45.60;;;5.20;99.90;;;;;;4836256;29;20486;-62
2022/12/01 06:22:40;;;;;;;84.00;46.30;;;5.20;99.90;;;;;;4843268;29;20573;-62
2022/12/01 06:25:10;;;;;;;79.93;42.27;;;5.30;99.90;;;;;;4846083;29;20247;-63
2022/12/01 06:27:39;;;;;;;79.23;42.90;;;5.30;99.90;;;;;;4842905;29;20896;-60
2022/12/01 06:30:09;;;;;;;85.50;47.10;;;5.30;99.90;;;;;;4840479;29;20980;-57
2022/12/01 06:32:37;;;;;;;87.77;48.10;;;5.20;99.90;;;;;;4830829;29;20484;-60
2022/12/01 06:35:08;;;;;;;91.23;48.90;;;5.30;99.90;;;;;;4826130;29;20996;-62
2022/12/01 06:37:36;;;;;;;79.03;43.43;;;5.10;99.90;;;;;;4826912;29;20492;-62
2022/12/01 06:40:05;;;;;;;81.87;44.07;;;5.10;99.90;;;;;;4828199;29;20578;-61
2022/12/01 06:42:33;;;;;;;92.67;49.77;;;5.20;99.90;;;;;;4825597;29;20488;-63
2022/12/01 06:45:01;;;;;;;94.20;48.60;;;5.10;99.90;;;;;;4827215;29;20498;-60
2022/12/01 06:47:29;;;;;;;101.87;50.83;;;5.10;99.90;;;;;;4827877;29;21002;-61
2022/12/01 06:49:57;;;;;;;94.30;48.63;;;5.00;99.90;;;;;;4828650;29;20512;-60
2022/12/01 06:52:27;;;;;;;88.40;47.30;;;5.00;99.90;;;;;;4827909;29;20468;-61
2022/12/01 06:54:55;;;;;;;98.43;49.17;;;5.00;99.90;;;;;;4828648;29;20472;-61
2022/12/01 06:57:23;;;;;;;94.83;47.47;;;5.00;99.90;;;;;;4827935;29;20235;-62
2022/12/01 06:59:51;;;;;;;98.07;49.87;;;5.00;99.90;;;;;;4820269;29;20354;-62
2022/12/01 07:02:20;;;;;;;89.40;46.50;;;5.00;99.90;;;;;;4820978;29;20491;-62
2022/12/01 07:04:48;;;;;;;94.30;45.77;;;5.10;99.90;;;;;;4827308;29;20489;-62
2022/12/01 07:07:16;;;;;;;96.90;49.40;;;5.10;99.90;;;;;;4822149;29;20696;-60
2022/12/01 07:09:45;;;;;;;94.10;45.27;;;5.00;99.90;;;;;;4822011;29;20235;-60
2022/12/01 07:12:13;;;;;;;98.83;49.87;;;5.10;99.90;;;;;;4821213;29;20261;-59
2022/12/01 07:14:42;;;;;;;99.53;50.47;;;5.00;99.90;;;;;;4824069;29;20469;-61
2022/12/01 07:17:10;;;;;;;99.90;48.43;;;5.00;99.90;;;;;;4823364;29;20534;-62
2022/12/01 07:19:38;;;;;;;94.27;47.37;;;5.00;99.90;;;;;;4820578;29;21216;-60
2022/12/01 07:22:06;;;;;;;90.13;44.23;;;4.90;99.90;;;;;;4820390;29;20236;-61
2022/12/01 07:24:35;;;;;;;98.33;49.40;;;5.10;99.90;;;;;;4820059;29;20512;-59
2022/12/01 07:27:04;;;;;;;92.23;48.10;;;5.00;99.90;;;;;;4821556;29;20510;-62
2022/12/01 07:29:32;;;;;;;99.63;49.30;;;4.90;99.90;;;;;;4820928;29;20276;-62
2022/12/01 07:32:00;;;;;;;95.77;47.73;;;4.90;99.90;;;;;;4820622;29;20242;-62
2022/12/01 07:34:28;;;;;;;90.47;46.10;;;4.90;99.90;;;;;;4822612;29;20993;-61
2022/12/01 07:36:57;;;;;;;96.90;47.43;;;5.00;99.90;;;;;;4824092;29;21334;-62
2022/12/01 07:39:25;;;;;;;97.40;48.43;;;5.00;99.90;;;;;;4821097;29;20242;-61
2022/12/01 07:41:53;;;;;;;93.47;47.60;;;4.90;99.90;;;;;;4819143;29;20487;-59
2022/12/01 07:44:22;;;;;;;91.00;45.53;;;4.90;99.90;;;;;;4820349;29;20511;-62
2022/12/01 07:46:50;;;;;;;101.90;49.07;;;4.90;99.90;;;;;;4822006;29;20506;-62
2022/12/01 07:49:18;;;;;;;88.93;47.33;;;5.00;99.90;;;;;;4825519;29;21114;-61
2022/12/01 07:51:47;;;;;;;88.97;43.93;;;5.00;99.90;;;;;;4819412;29;20479;-62
2022/12/01 07:54:16;;;;;;;96.23;46.70;;;5.10;99.90;;;;;;4821428;29;20344;-61
2022/12/01 07:56:44;;;;;;;88.70;44.80;;;5.10;99.90;;;;;;4823649;29;21077;-62
2022/12/01 07:59:12;;;;;;;97.23;47.47;;;5.10;99.90;;;;;;4822092;29;20992;-62
2022/12/01 08:01:42;;;;;;;102.17;50.90;;;5.10;99.90;;;;;;4819188;29;20503;-59
2022/12/01 08:04:12;;;;;;;90.80;45.93;;;5.00;99.90;;;;;;4822250;29;20504;-61
2022/12/01 08:06:40;;;;;;;88.23;44.37;;;5.00;99.90;;;;;;4822713;29;20467;-60
2022/12/01 08:09:08;;;;;;;98.67;48.23;;;5.00;99.90;;;;;;4820466;29;20524;-61
2022/12/01 08:11:36;;;;;;;94.93;47.43;;;5.00;99.90;;;;;;4819007;29;20987;-58
2022/12/01 08:14:05;;;;;;;84.27;43.67;;;5.00;99.90;;;;;;4823526;29;20464;-62
2022/12/01 08:16:33;;;;;;;97.00;47.67;;;5.00;99.90;;;;;;4821121;29;20485;-62
2022/12/01 08:19:02;;;;;;;97.13;47.83;;;5.00;99.90;;;;;;4822314;29;20965;-61
2022/12/01 08:21:30;;;;;;;90.90;46.13;;;5.00;99.90;;;;;;4819653;29;20223;-61
2022/12/01 08:23:59;;;;;;;98.13;48.47;;;5.00;99.90;;;;;;4821436;29;20504;-60
2022/12/01 08:26:27;;;;;;;93.63;46.83;;;5.00;99.90;;;;;;4821718;29;21620;-58
2022/12/01 08:28:56;;;;;;;91.57;45.53;;;5.00;99.90;;;;;;4823428;29;20475;-61
2022/12/01 08:31:26;;;;;;;99.30;47.40;;;5.00;99.90;;;;;;4822540;29;20509;-62
2022/12/01 08:33:55;;;;;;;93.23;47.83;;;5.00;99.90;;;;;;4821661;29;20242;-61
2022/12/01 08:36:25;;;;;;;92.53;47.70;;;5.00;99.90;;;;;;4822539;29;20473;-62
2022/12/01 08:38:55;;;;;;;91.00;46.03;;;5.00;99.90;;;;;;4822733;29;20475;-62
2022/12/01 08:41:24;;;;;;;87.13;45.20;;;4.90;99.90;;;;;;4823213;29;21034;-62
2022/12/01 08:43:52;;;;;;;96.40;47.67;;;5.00;99.90;;;;;;4833921;29;21046;-62
2022/12/01 08:46:27;;;;;;;94.17;46.57;;;5.00;99.90;;;;;;4834752;29;20566;-59
2022/12/01 08:48:56;;;;;;;94.97;47.63;;;5.00;99.90;;;;;;4834749;29;20495;-61
2022/12/01 08:51:26;;;;;;;88.13;44.40;;;5.10;99.90;;;;;;4834831;29;20326;-60
2022/12/01 08:53:56;;;;;;;87.40;45.57;;;5.10;99.90;;;;;;4839908;29;21004;-61
2022/12/01 08:56:27;;;;;;;96.90;47.60;;;5.20;99.90;;;;;;4836998;29;20488;-61
2022/12/01 08:58:55;;;;;;;91.77;45.80;;;5.20;99.90;;;;;;4837566;29;20489;-61
2022/12/01 09:01:24;;;;;;;97.80;48.87;;;5.10;99.90;;;;;;4822651;29;20496;-62
2022/12/01 09:04:04;;;;;;;96.73;45.17;;;5.10;99.90;;;;;;4825761;29;20498;-62
2022/12/01 09:06:37;;;;;;;92.63;45.60;;;5.00;99.90;;;;;;4825604;29;20480;-62
2022/12/01 09:09:05;;;;;;;88.33;44.07;;;5.10;99.90;;;;;;4825031;29;20242;-62
2022/12/01 09:11:33;;;;;;;91.20;43.87;;;5.10;99.90;;;;;;4829071;29;20480;-62
2022/12/01 09:14:01;;;;;;;100.40;47.60;;;5.10;99.90;;;;;;4839266;29;20490;-62
2022/12/01 09:16:29;;;;;;;99.00;46.90;;;5.10;99.90;;;;;;4838853;29;20480;-61
2022/12/01 09:18:58;;;;;;;101.07;47.03;;;5.10;99.90;;;;;;4838934;29;20512;-61
2022/12/01 09:21:29;;;;;;;94.70;47.40;;;5.10;99.90;;;;;;4836630;29;21412;-59
2022/12/01 09:23:59;;;;;;;99.90;48.40;;;5.10;99.90;;;;;;4837965;29;21717;-61
2022/12/01 09:26:28;;;;;;;96.30;46.70;;;5.20;99.90;;;;;;4838272;29;21170;-61
2022/12/01 09:29:01;;;;;;;88.37;41.80;;;5.20;99.90;;;;;;4837935;29;20481;-61
2022/12/01 09:31:29;;;;;;;98.43;46.37;;;5.30;99.90;;;;;;4830868;29;20504;-62
2022/12/01 09:34:00;;;;;;;102.50;47.83;;;5.40;99.90;;;;;;4832020;29;20481;-59
2022/12/01 09:36:29;;;;;;;100.80;50.03;;;5.20;99.90;;;;;;4826956;29;20512;-61
2022/12/01 09:38:58;;;;;;;97.40;47.37;;;5.20;99.90;;;;;;4831029;29;20491;-61
2022/12/01 09:41:30;;;;;;;94.20;47.43;;;5.20;99.90;;;;;;4831909;29;20488;-59
2022/12/01 09:44:04;;;;;;;90.43;41.90;;;5.10;99.90;;;;;;4831065;29;20510;-60
2022/12/01 09:46:36;;;;;;;99.30;46.57;;;5.20;99.90;;;;;;4826379;29;20483;-62
2022/12/01 09:49:09;;;;;;;105.17;49.73;;;5.30;99.90;;;;;;4836729;29;20981;-61
2022/12/01 09:51:37;;;;;;;98.33;46.30;;;5.10;99.90;;;;;;4830749;29;20607;-62
2022/12/01 09:54:08;;;;;;;90.83;46.07;;;5.20;99.90;;;;;;4830308;29;20479;-60
2022/12/01 09:56:42;;;;;;;92.27;45.43;;;5.30;99.90;;;;;;4827231;29;20499;-60
2022/12/01 09:59:19;;;;;;;95.10;47.00;;;5.20;99.90;;;;;;4829093;29;20484;-58
2022/12/01 10:01:52;;;;;;;86.57;43.50;;;5.30;99.90;;;;;;4828530;29;20500;-62
2022/12/01 10:04:25;;;;;;;86.93;43.07;;;5.30;99.90;;;;;;4827414;29;20490;-62
2022/12/01 10:06:59;;;;;;;88.97;44.13;;;5.20;99.90;;;;;;4830599;29;20551;-62
2022/12/01 10:09:36;;;;;;;74.77;37.23;;;5.40;99.90;;;;;;4834460;29;20571;-62
2022/12/01 10:12:13;;;;;;;87.50;43.43;;;5.50;99.90;;;;;;4839093;29;20474;-62
2022/12/01 10:14:43;;;;;;;83.63;42.37;;;5.50;99.90;;;;;;4843178;29;20478;-62
2022/12/01 10:17:21;;;;;;;83.87;41.73;;;5.40;99.90;;;;;;4842513;29;20536;-60
2022/12/01 10:19:57;;;;;;;77.77;39.73;;;5.40;99.90;;;;;;4843528;29;20496;-62
2022/12/01 10:22:44;;;;;;;77.27;40.93;;;5.30;99.90;;;;;;4836081;29;20852;-61
2022/12/01 10:25:21;;;;;;;84.23;40.70;;;5.30;99.90;;;;;;4833859;29;20515;-62
2022/12/01 10:28:10;;;;;;;80.93;42.50;;;5.40;99.90;;;;;;4832095;29;20495;-62
2022/12/01 10:30:48;;;;;;;80.93;40.10;;;5.30;99.90;;;;;;4832385;29;20495;-61
2022/12/01 10:33:24;;;;;;;76.43;40.00;;;5.30;99.90;;;;;;4838899;29;20480;-59
2022/12/01 10:35:52;;;;;;;79.70;40.00;;;5.30;99.90;;;;;;4841875;29;20822;-62
2022/12/01 10:38:26;;;;;;;81.40;40.60;;;5.40;99.90;;;;;;4841200;29;20484;-61
2022/12/01 10:40:59;;;;;;;78.93;40.47;;;5.50;99.90;;;;;;4832294;29;21008;-59
2022/12/01 10:43:32;;;;;;;75.33;38.13;;;5.60;99.90;;;;;;4832934;29;20849;-61
2022/12/01 10:46:05;;;;;;;79.00;43.00;;;5.60;99.90;;;;;;4833987;29;21138;-61
2022/12/01 10:48:33;;;;;;;79.10;40.17;;;5.60;99.90;;;;;;4834077;29;20550;-61
2022/12/01 10:51:15;;;;;;;80.03;41.37;;;5.50;99.90;;;;;;4840506;29;20239;-61
2022/12/01 10:53:43;;;;;;;74.30;40.17;;;5.50;99.90;;;;;;4842624;29;20479;-62
2022/12/01 10:56:17;;;;;;;78.10;40.20;;;5.50;99.90;;;;;;4845886;29;20482;-62
2022/12/01 10:58:49;;;;;;;72.43;38.27;;;5.50;99.90;;;;;;4844939;29;20487;-61
2022/12/01 11:01:20;;;;;;;77.33;39.20;;;5.60;99.90;;;;;;4841531;29;20496;-61
2022/12/01 11:04:02;;;;;;;70.83;38.57;;;5.50;99.90;;;;;;4841134;29;20498;-61
2022/12/01 11:06:31;;;;;;;76.67;39.13;;;5.40;99.90;;;;;;4833277;29;20514;-59
2022/12/01 11:09:02;;;;;;;75.37;39.17;;;5.30;99.90;;;;;;4831724;29;20479;-61
2022/12/01 11:11:34;;;;;;;65.70;35.17;;;5.40;99.90;;;;;;4830799;29;20490;-61
2022/12/01 11:14:05;;;;;;;69.53;37.97;;;5.60;99.90;;;;;;4833167;29;20475;-62
2022/12/01 11:16:37;;;;;;;68.63;37.10;;;5.40;99.90;;;;;;4831803;29;20846;-62
2022/12/01 11:19:18;;;;;;;73.33;38.23;;;5.30;99.90;;;;;;4830622;29;20468;-63
2022/12/01 11:21:55;;;;;;;68.20;36.87;;;5.30;99.90;;;;;;4831645;29;20479;-62
2022/12/01 11:24:41;;;;;;;69.90;37.40;;;5.40;99.90;;;;;;4832102;29;20492;-62
2022/12/01 11:27:16;;;;;;;65.17;36.97;;;5.60;99.90;;;;;;4835948;29;20495;-61
2022/12/01 11:29:47;;;;;;;67.37;37.07;;;5.50;99.90;;;;;;4832450;29;20245;-61
2022/12/01 11:32:22;;;;;;;65.57;36.60;;;5.60;99.90;;;;;;4828994;29;20874;-62
2022/12/01 11:34:55;;;;;;;67.67;35.67;;;5.70;99.90;;;;;;4831427;29;20472;-62
2022/12/01 11:37:27;;;;;;;65.40;35.67;;;5.70;99.90;;;;;;4830691;29;20542;-62
2022/12/01 11:40:03;;;;;;;63.53;34.73;;;5.70;99.90;;;;;;4834852;29;20877;-62
2022/12/01 11:42:35;;;;;;;62.50;34.43;;;5.70;99.90;;;;;;4827745;29;20487;-61
2022/12/01 11:45:07;;;;;;;58.97;33.50;;;5.50;99.90;;;;;;4826492;29;20486;-62
2022/12/01 11:47:55;;;;;;;60.37;33.47;;;5.40;99.90;;;;;;4830127;29;20492;-61
2022/12/01 11:50:26;;;;;;;62.60;33.67;;;5.40;99.90;;;;;;4831157;29;20997;-62
2022/12/01 11:52:54;;;;;;;60.03;32.23;;;5.30;99.90;;;;;;4829416;29;20483;-61
2022/12/01 11:55:24;;;;;;;57.60;31.43;;;5.20;99.90;;;;;;4831523;29;20982;-62
2022/12/01 11:57:57;;;;;;;59.63;33.50;;;5.30;99.90;;;;;;4833540;29;20828;-62
2022/12/01 12:00:27;;;;;;;58.50;31.97;;;5.30;99.90;;;;;;4829184;29;21304;-61
2022/12/01 12:03:15;;;;;;;58.50;32.43;;;5.40;99.90;;;;;;4832610;29;20567;-61
2022/12/01 12:06:02;;;;;;;60.37;32.80;;;5.30;99.90;;;;;;4829996;29;20568;-60
2022/12/01 12:09:15;;;;;;;64.20;33.57;;;5.30;99.90;;;;;;4831130;29;20518;-62
2022/12/01 12:11:52;;;;;;;62.67;32.13;;;5.30;99.90;;;;;;4827203;29;20481;-61
2022/12/01 12:14:39;;;;;;;62.63;33.53;;;5.20;99.90;;;;;;4829209;29;20487;-61
2022/12/01 12:17:19;;;;;;;61.87;31.53;;;5.20;99.90;;;;;;4832236;29;20485;-62
2022/12/01 12:20:19;;;;;;;63.27;32.60;;;5.20;99.90;;;;;;4830979;29;20520;-61
2022/12/01 12:22:54;;;;;;;57.33;30.60;;;5.10;99.90;;;;;;4831901;29;20521;-62
2022/12/01 12:25:32;;;;;;;63.80;37.58;;;5.00;99.90;;;;;;4832431;29;20810;-61
2022/12/01 12:28:17;;;;;;;50.90;29.50;;;5.00;99.90;;;;;;4834404;29;20691;-62
2022/12/01 12:30:56;;;;;;;58.33;30.93;;;5.00;99.90;;;;;;4832055;29;20944;-60
2022/12/01 12:33:48;;;;;;;53.33;28.07;;;4.90;99.90;;;;;;4839265;29;21069;-60
2022/12/01 12:36:28;;;;;;;52.47;27.07;;;5.00;99.90;;;;;;4833806;29;20485;-58
2022/12/01 12:39:07;;;;;;;50.77;28.30;;;5.00;99.90;;;;;;4837522;29;20492;-60
2022/12/01 12:41:46;;;;;;;55.13;29.20;;;5.00;99.90;;;;;;4834373;29;20985;-59
2022/12/01 12:44:40;;;;;;;48.03;26.30;;;5.10;99.90;;;;;;4837036;29;20591;-60
2022/12/01 12:47:22;;;;;;;49.47;27.17;;;5.00;99.90;;;;;;4836550;29;20511;-61
2022/12/01 12:50:00;;;;;;;49.57;27.03;;;5.00;99.90;;;;;;4834027;29;20505;-60
2022/12/01 12:52:32;;;;;;;50.57;28.20;;;5.00;99.90;;;;;;4829365;29;20492;-61
2022/12/01 12:55:05;;;;;;;57.27;27.27;;;5.00;99.90;;;;;;4844756;29;20482;-61
2022/12/01 12:57:35;;;;;;;50.77;26.33;;;5.00;99.90;;;;;;4832354;29;20481;-61
2022/12/01 13:00:07;;;;;;;53.00;28.13;;;4.90;99.90;;;;;;4837715;29;20475;-62
2022/12/01 13:02:41;;;;;;;50.97;26.97;;;4.90;99.90;;;;;;4835513;29;20746;-59
2022/12/01 13:05:14;;;;;;;50.63;27.23;;;4.90;99.90;;;;;;4834771;29;20987;-61